Skip Navigation Links
NOAA logo - Click to go to the NOAA homepage
NOAA's National Weather Service
Alaska Aviation Weather Unit
  NWS logo - Click to go to the NWS homepage
Left Navbar Graphic     10 AKDT = 18 GMT

   
NOAA is celebrating 200 years of science, service, and stewardship. Visit the NOAA 200th celebration Web site to learn more.
USA.gov is the U.S. Government's official Web portal to all Federal, state and local government Web resources and services.
Facebook
NWS on Facebook

Important Change Regarding the AAWU Web Presence

 

Over the last several months, the AAWU has been working to navigate its webpages to a nationally supported server. Security, as well as other needs, have necessitated the change.  We have been given an extension for the site changeover while we diligently work at addressing feedback received. As of July 14, 2017, aawu.arh.noaa.gov will be discontinued. The new AAWU web address is weather.gov/aawu. It is now live and will run in-parallel with the old site until it is discontinued on July 14, 2017. Please continue to send any feedback or questions regarding the new webpages to nws.ar.aawu.webauthors@noaa.gov.  Thank you for your patience during this time of transition.
AAWU Home :: Display TAF Add Bookmark
PABA 261252Z AUTO 26013KT 10SM FEW019 OVC033 00/M01 A3011=

SPECI PABA 261311Z AUTO 26014KT 10SM OVC029 00/M01 A3011 RMK AO2 FZRANO
     TSNO=

PABA 261352Z AUTO 27015KT 10SM OVC029 00/M02 A3011=

PABA 261452Z AUTO 27016KT 10SM SCT022 OVC027 M01/M02 A3012=

PABA 261552Z AUTO 25019G25KT 10SM OVC027 M01/M04 A3013=

SPECI PABA 261612Z AUTO 26021G26KT 10SM SCT027 M01/M04 A3014 RMK AO2
      PK WND 26026/1607 FZRANO TSNO=

SPECI PABA 261620Z AUTO 26018G25KT 10SM BKN027 M01/M04 A3014 RMK AO2 PK
     WND 26026/1607 FZRANO TSNO=

SPECI PABA 261648Z AUTO 25018KT 10SM SCT027 M01/M03 A3013 RMK AO2 PK
      WND 26026/1607 FZRANO TSNO=

PABA 261652Z AUTO 25019KT 10SM SCT027 M01/M03 A3013=

PABA 261752Z AUTO 26023G28KT 10SM OVC037 00/M03 A3014=


NOAA's National Weather Service
Alaska Aviation Weather Unit
6930 Sand Lake Road
Anchorage, AK 99502-1845
Disclaimer
Credits
Glossary
Privacy Policy
About Us
Career Opportunities
Contact AAWU Internet Services Site last modified: April, 17th 2012